createdAt,value
2018-06-22T00:00:44.086Z,64.11
2018-06-22T00:01:44.055Z,64.21
2018-06-22T00:02:44.070Z,64.11
2018-06-22T00:03:44.147Z,63.73
2018-06-22T00:04:44.048Z,63.73
2018-06-22T00:05:44.112Z,63.73
2018-06-22T00:06:44.096Z,63.73
2018-06-22T00:07:44.095Z,63.73
2018-06-22T00:08:44.108Z,63.6
2018-06-22T00:09:44.084Z,63.82
2018-06-22T00:10:44.112Z,63.82
2018-06-22T00:11:44.048Z,63.6
2018-06-22T00:12:44.057Z,63.6
2018-06-22T00:13:44.806Z,63.53
2018-06-22T00:14:44.118Z,63.89
2018-06-22T00:15:44.124Z,63.63
2018-06-22T00:16:44.109Z,63.89
2018-06-22T00:17:44.097Z,64.11
2018-06-22T00:18:44.146Z,63.79
2018-06-22T00:19:44.102Z,63.82
2018-06-22T00:20:44.102Z,63.73
2018-06-22T00:21:44.118Z,63.82
2018-06-22T00:22:44.092Z,63.6
2018-06-22T00:23:44.176Z,63.69
2018-06-22T00:24:44.127Z,63.69
2018-06-22T00:25:44.122Z,63.69
2018-06-22T00:26:44.099Z,63.5
2018-06-22T00:27:44.122Z,63.69
2018-06-22T00:28:44.105Z,63.6
2018-06-22T00:29:44.091Z,63.79
2018-06-22T00:30:44.152Z,63.6
2018-06-22T00:31:44.106Z,63.79
2018-06-22T00:32:44.091Z,63.79
2018-06-22T00:33:44.114Z,63.6
2018-06-22T00:34:44.123Z,63.69
2018-06-22T00:35:44.134Z,63.69
2018-06-22T00:36:44.141Z,63.02
2018-06-22T00:37:44.117Z,63.5
2018-06-22T00:38:44.124Z,63.11
2018-06-22T00:39:44.127Z,63.21
2018-06-22T00:40:44.129Z,63.11
2018-06-22T00:41:44.134Z,62.82
2018-06-22T00:42:44.121Z,63.31
2018-06-22T00:43:44.128Z,63.5
2018-06-22T00:44:44.129Z,63.4
2018-06-22T00:45:44.115Z,62.92
2018-06-22T00:46:44.172Z,63.11
2018-06-22T00:47:44.152Z,62.92
2018-06-22T00:48:44.185Z,62.92
2018-06-22T00:49:44.168Z,63.21
2018-06-22T00:50:44.185Z,63.21
2018-06-22T00:51:44.131Z,62.92
2018-06-22T00:52:44.184Z,63.02
2018-06-22T00:53:44.212Z,63.02
2018-06-22T00:54:44.119Z,63.02
2018-06-22T00:55:44.158Z,62.73
2018-06-22T00:56:44.237Z,63.11
2018-06-22T00:57:44.194Z,63.02
2018-06-22T00:58:44.204Z,62.92
2018-06-22T00:59:44.182Z,62.92
2018-06-22T01:00:44.227Z,63.21
2018-06-22T01:01:44.178Z,62.73
2018-06-22T01:02:44.217Z,63.11
2018-06-22T01:03:44.239Z,62.73
2018-06-22T01:04:44.160Z,62.82
2018-06-22T01:05:44.171Z,62.92
2018-06-22T01:06:44.148Z,62.82
2018-06-22T01:07:44.179Z,63.02
2018-06-22T01:08:44.157Z,62.92
2018-06-22T01:09:44.192Z,62.82
2018-06-22T01:10:44.151Z,62.53
2018-06-22T01:11:44.161Z,62.63
2018-06-22T01:12:44.184Z,62.53
2018-06-22T01:13:44.225Z,62.44
2018-06-22T01:14:44.200Z,62.34
2018-06-22T01:15:44.203Z,62.53
2018-06-22T01:16:44.199Z,62.44
2018-06-22T01:21:13.147Z,62.53
2018-06-22T01:22:13.348Z,62.53
2018-06-22T01:23:13.153Z,62.73
2018-06-22T01:24:13.107Z,62.44
2018-06-22T01:25:13.139Z,62.34
2018-06-22T01:26:13.135Z,62.44
2018-06-22T01:27:13.186Z,62.44
2018-06-22T01:28:13.110Z,62.34
2018-06-22T01:29:13.177Z,62.15
2018-06-22T01:30:13.125Z,62.53
2018-06-22T01:31:13.213Z,62.44
2018-06-22T01:32:13.833Z,62.34
2018-06-22T01:33:13.130Z,62.15
2018-06-22T01:34:13.142Z,62.15
2018-06-22T01:35:13.125Z,61.95
2018-06-22T01:36:13.133Z,62.34
2018-06-22T01:37:13.121Z,61.86
2018-06-22T01:38:13.153Z,61.86
2018-06-22T01:39:13.135Z,62.15
2018-06-22T01:40:13.191Z,61.86
2018-06-22T01:41:13.200Z,61.86
2018-06-22T01:42:13.152Z,61.47
2018-06-22T01:43:13.144Z,61.47
2018-06-22T01:44:13.146Z,62.15
2018-06-22T01:45:13.148Z,61.86
2018-06-22T01:46:13.163Z,61.86
2018-06-22T01:47:13.162Z,62.05
2018-06-22T01:48:13.188Z,61.86
2018-06-22T01:49:13.145Z,62.24
2018-06-22T01:50:13.129Z,61.47
2018-06-22T01:51:13.167Z,61.57
2018-06-22T01:52:13.195Z,61.57
2018-06-22T01:53:13.219Z,61.66
2018-06-22T01:54:13.160Z,61.27
2018-06-22T01:55:13.164Z,61.47
2018-06-22T01:56:13.161Z,61.66
2018-06-22T01:57:13.144Z,61.37
2018-06-22T01:58:13.180Z,61.66
2018-06-22T01:59:13.181Z,61.76
2018-06-22T02:00:13.196Z,61.37
2018-06-22T02:01:13.174Z,61.76
2018-06-22T02:02:13.177Z,62.15
2018-06-22T02:03:13.171Z,62.15
2018-06-22T02:04:13.208Z,62.05
2018-06-22T02:05:13.173Z,62.34
2018-06-22T02:06:13.179Z,62.24
2018-06-22T02:07:13.208Z,61.86
2018-06-22T02:08:13.194Z,61.86
2018-06-22T02:09:13.209Z,62.24
2018-06-22T02:10:13.190Z,62.24
2018-06-22T02:11:13.218Z,61.47
2018-06-22T02:12:13.245Z,61.47
2018-06-22T02:13:13.256Z,61.47
2018-06-22T02:14:13.208Z,61.66
2018-06-22T02:15:13.233Z,61.47
2018-06-22T02:16:13.224Z,61.37
2018-06-22T02:17:13.235Z,62.34
2018-06-22T02:18:13.232Z,61.95
2018-06-22T02:19:13.211Z,61.47
2018-06-22T02:20:13.249Z,61.47
2018-06-22T02:21:13.224Z,61.37
2018-06-22T02:22:13.239Z,62.24
2018-06-22T02:23:13.221Z,62.24
2018-06-22T02:24:13.202Z,61.95
2018-06-22T02:25:13.267Z,61.95
2018-06-22T02:26:13.267Z,61.86
2018-06-22T02:27:13.243Z,61.95
2018-06-22T02:28:13.205Z,62.34
2018-06-22T02:29:13.222Z,62.24
2018-06-22T02:30:13.241Z,61.95
2018-06-22T02:31:13.217Z,62.05
2018-06-22T02:32:13.267Z,62.15
2018-06-22T02:33:13.230Z,62.05
2018-06-22T02:34:13.239Z,62.05
2018-06-22T02:35:13.246Z,62.24
2018-06-22T02:36:13.251Z,61.86
2018-06-22T02:37:13.251Z,62.34
2018-06-22T02:38:13.268Z,62.05
2018-06-22T02:39:13.248Z,61.86
2018-06-22T02:40:13.282Z,62.24
2018-06-22T02:41:13.231Z,62.15
2018-06-22T02:42:13.260Z,62.05
2018-06-22T02:43:13.254Z,62.15
2018-06-22T02:44:13.253Z,62.05
2018-06-22T02:45:13.267Z,62.24
2018-06-22T02:46:13.288Z,62.53
2018-06-22T02:47:13.355Z,62.34
2018-06-22T02:48:13.297Z,61.95
2018-06-22T02:49:13.322Z,61.95
2018-06-22T02:50:13.267Z,62.15
2018-06-22T02:51:13.267Z,62.24
2018-06-22T02:52:13.253Z,61.95
2018-06-22T02:53:13.308Z,61.95
2018-06-22T02:54:13.282Z,62.24
2018-06-22T02:55:13.293Z,62.15
2018-06-22T02:56:13.260Z,62.15
2018-06-22T02:57:13.262Z,61.95
2018-06-22T02:58:13.257Z,62.05
2018-06-22T02:59:13.320Z,62.44
2018-06-22T03:00:13.364Z,62.34
2018-06-22T03:01:13.318Z,62.44
2018-06-22T03:02:13.285Z,61.86
2018-06-22T03:03:13.282Z,62.34
2018-06-22T03:04:13.356Z,62.53
2018-06-22T03:05:13.309Z,62.53
2018-06-22T03:06:13.342Z,62.73
2018-06-22T03:07:13.321Z,61.76
2018-06-22T03:08:13.364Z,61.76
2018-06-22T03:09:13.345Z,62.15
2018-06-22T03:10:13.353Z,61.95
2018-06-22T03:11:13.305Z,62.34
2018-06-22T03:12:13.366Z,62.44
2018-06-22T03:13:13.342Z,62.53
2018-06-22T03:14:13.313Z,62.53
2018-06-22T03:15:13.363Z,62.44
2018-06-22T03:16:13.353Z,62.44
2018-06-22T03:17:13.307Z,62.05
2018-06-22T03:18:13.308Z,62.34
2018-06-22T03:19:13.348Z,62.44
2018-06-22T03:20:13.327Z,61.95
2018-06-22T03:21:13.358Z,62.05
2018-06-22T03:22:13.325Z,62.05
2018-06-22T03:23:13.349Z,62.24
2018-06-22T03:24:13.324Z,62.05
2018-06-22T03:25:13.336Z,62.05
2018-06-22T03:26:13.390Z,62.63
2018-06-22T03:27:13.377Z,61.86
2018-06-22T03:28:13.338Z,62.15
2018-06-22T03:29:13.369Z,61.95
2018-06-22T03:30:13.354Z,61.95
2018-06-22T03:31:13.346Z,62.34
2018-06-22T03:32:13.405Z,62.34
2018-06-22T03:33:13.309Z,62.44
2018-06-22T03:34:13.905Z,62.53
2018-06-22T03:35:13.356Z,62.63
2018-06-22T03:36:13.392Z,62.44
2018-06-22T03:37:13.335Z,62.34
2018-06-22T03:38:13.421Z,62.92
2018-06-22T03:39:13.374Z,63.31
2018-06-22T03:40:13.379Z,62.53
2018-06-22T03:41:13.344Z,62.24
2018-06-22T03:42:13.398Z,62.63
2018-06-22T03:43:13.399Z,62.15
2018-06-22T03:44:13.390Z,62.24
2018-06-22T03:45:13.386Z,62.15
2018-06-22T03:46:13.403Z,62.44
2018-06-22T03:48:32.222Z,62.24
2018-06-22T03:49:32.179Z,62.53
2018-06-22T03:50:32.213Z,62.34
2018-06-22T03:51:32.217Z,62.34
2018-06-22T03:52:32.170Z,62.05
2018-06-22T03:53:32.205Z,62.44
2018-06-22T03:54:32.187Z,62.05
2018-06-22T03:55:32.225Z,62.44
2018-06-22T03:56:32.259Z,62.44
2018-06-22T03:57:32.233Z,62.34
2018-06-22T03:58:33.196Z,62.82
2018-06-22T03:59:32.192Z,62.53
2018-06-22T04:00:48.332Z,62.44
2018-06-22T04:01:48.269Z,62.34
2018-06-22T04:02:48.270Z,62.53
2018-06-22T04:03:48.282Z,62.34
2018-06-22T04:04:48.281Z,62.05
2018-06-22T04:05:48.288Z,61.86
2018-06-22T04:06:48.318Z,62.34
2018-06-22T04:07:48.308Z,62.44
2018-06-22T04:08:48.260Z,62.44
2018-06-22T04:09:48.266Z,62.24
2018-06-22T04:10:48.293Z,62.34
2018-06-22T04:11:48.328Z,62.44
2018-06-22T04:12:48.328Z,62.05
2018-06-22T04:13:48.293Z,62.34
2018-06-22T04:14:48.327Z,62.24
2018-06-22T04:15:48.303Z,62.24
2018-06-22T04:16:48.309Z,62.05
2018-06-22T04:17:48.299Z,62.34
2018-06-22T04:18:48.373Z,62.15
2018-06-22T04:19:48.330Z,62.34
2018-06-22T04:20:48.333Z,62.15
2018-06-22T04:21:48.318Z,62.15
2018-06-22T04:22:48.317Z,62.34
2018-06-22T04:23:48.304Z,62.63
2018-06-22T04:24:48.314Z,62.4
2018-06-22T04:25:48.313Z,62.34
2018-06-22T04:26:48.293Z,62.34
2018-06-22T04:27:48.323Z,62.34
2018-06-22T04:28:48.358Z,63.21
2018-06-22T04:29:48.320Z,62.92
2018-06-22T04:30:48.323Z,62.53
2018-06-22T04:31:48.379Z,62.53
2018-06-22T04:32:48.395Z,62.44
2018-06-22T04:33:48.376Z,62.63
2018-06-22T04:34:48.374Z,62.44
2018-06-22T04:35:48.366Z,62.34
2018-06-22T04:36:48.358Z,62.73
2018-06-22T04:37:48.366Z,62.44
2018-06-22T04:38:48.420Z,62.44
2018-06-22T04:39:48.363Z,62.53
2018-06-22T04:40:49.131Z,62.44
2018-06-22T04:41:48.343Z,62.63
2018-06-22T04:42:48.378Z,62.34
2018-06-22T04:43:48.562Z,62.34
2018-06-22T04:44:48.333Z,62.34
2018-06-22T04:45:48.343Z,62.82
2018-06-22T04:46:48.426Z,62.63
2018-06-22T04:47:48.416Z,62.34
2018-06-22T04:48:48.419Z,62.63
2018-06-22T04:49:48.352Z,62.34
2018-06-22T04:50:48.404Z,62.53
2018-06-22T04:51:48.384Z,62.53
2018-06-22T04:52:48.401Z,62.24
2018-06-22T04:53:48.472Z,62.31
2018-06-22T04:54:48.378Z,62.05
2018-06-22T04:55:48.408Z,62.53
2018-06-22T04:56:48.415Z,62.5
2018-06-22T04:57:48.429Z,62.53
2018-06-22T04:58:48.412Z,62.63
2018-06-22T04:59:48.382Z,63.18
2018-06-22T05:00:48.363Z,63.37
2018-06-22T05:01:48.397Z,63.02
2018-06-22T05:02:48.376Z,62.89
2018-06-22T05:03:48.437Z,62.89
2018-06-22T05:04:48.476Z,63.11
2018-06-22T05:05:48.402Z,63.66
2018-06-22T05:06:48.420Z,63.69
2018-06-22T05:07:48.376Z,63.11
2018-06-22T05:08:48.423Z,63.5
2018-06-22T05:09:48.427Z,63.21
2018-06-22T05:10:48.611Z,63.31
2018-06-22T05:11:48.430Z,62.82
2018-06-22T05:12:48.550Z,62.82
2018-06-22T05:13:48.461Z,62.92
2018-06-22T05:14:49.147Z,63.11
2018-06-22T05:15:48.596Z,63.11
2018-06-22T05:16:48.421Z,62.92
2018-06-22T05:17:48.428Z,63.02
2018-06-22T05:18:48.437Z,63.02
2018-06-22T05:19:48.431Z,62.63
2018-06-22T05:20:48.393Z,62.82
2018-06-22T05:21:48.429Z,62.73
2018-06-22T05:22:48.613Z,63.02
2018-06-22T05:23:48.440Z,62.63
2018-06-22T05:24:48.487Z,62.73
2018-06-22T05:25:48.426Z,60.6
2018-06-22T05:26:48.445Z,58.83
2018-06-22T05:27:48.416Z,57.67
2018-06-22T05:28:48.471Z,58.15
2018-06-22T05:29:48.432Z,59.28
2018-06-22T05:30:48.503Z,59.48
2018-06-22T05:31:48.433Z,59.96
2018-06-22T05:32:48.483Z,59.28
2018-06-22T05:33:48.453Z,59
2018-06-22T05:34:48.476Z,59.28
2018-06-22T05:35:48.597Z,59.22
2018-06-22T05:36:48.463Z,59.67
2018-06-22T05:37:48.482Z,59.31
2018-06-22T05:38:48.465Z,59.02
2018-06-22T05:39:48.472Z,59.12
2018-06-22T05:40:48.489Z,59.22
2018-06-22T05:41:48.437Z,58.83
2018-06-22T05:42:48.462Z,58.03
2018-06-22T05:43:48.490Z,58.22
2018-06-22T05:44:48.470Z,58.12
2018-06-22T05:45:48.465Z,57.74
2018-06-22T05:46:48.493Z,58.12
2018-06-22T05:47:48.520Z,58.22
2018-06-22T05:48:48.534Z,58.61
2018-06-22T05:49:48.472Z,58.03
2018-06-22T05:50:48.621Z,58.12
2018-06-22T05:51:48.525Z,58.9
2018-06-22T05:52:48.492Z,58.42
2018-06-22T05:53:48.560Z,58.61
2018-06-22T05:54:48.484Z,58.7
2018-06-22T05:55:48.466Z,58.32
2018-06-22T05:56:48.563Z,58.22
2018-06-22T05:57:48.472Z,57.74
2018-06-22T05:58:48.483Z,58.22
2018-06-22T05:59:48.467Z,58.03
2018-06-22T06:00:48.472Z,58.03
2018-06-22T06:01:48.484Z,58.12
2018-06-22T06:02:48.476Z,58.12
2018-06-22T06:03:48.494Z,58.22
2018-06-22T06:04:48.583Z,58.03
2018-06-22T06:05:48.497Z,57.54
2018-06-22T06:06:48.507Z,57.74
2018-06-22T06:07:48.495Z,57.45
2018-06-22T06:08:48.522Z,58.22
2018-06-22T06:09:48.510Z,58.12
2018-06-22T06:10:48.557Z,57.74
2018-06-22T06:11:48.542Z,57.93
2018-06-22T06:12:48.481Z,57.35
2018-06-22T06:13:48.502Z,57.84
2018-06-22T06:14:48.505Z,57.74
2018-06-22T06:15:48.510Z,57.74
2018-06-22T06:16:48.543Z,57.64
2018-06-22T06:17:48.524Z,57.74
2018-06-22T06:18:48.513Z,57.45
2018-06-22T06:19:48.538Z,58.22
2018-06-22T06:20:48.562Z,57.35
2018-06-22T06:21:48.553Z,57.35
2018-06-22T06:22:48.532Z,57.84
2018-06-22T06:23:48.548Z,57.54
2018-06-22T06:24:48.570Z,57.26
2018-06-22T06:25:48.601Z,57.74
2018-06-22T06:26:48.537Z,57.54
2018-06-22T06:27:48.585Z,57.54
2018-06-22T06:28:48.541Z,57.45
2018-06-22T06:29:48.588Z,56.94
2018-06-22T06:30:48.565Z,57.45
2018-06-22T06:31:48.540Z,57.54
2018-06-22T06:32:48.584Z,57.26
2018-06-22T06:33:48.550Z,57.54
2018-06-22T06:34:48.574Z,57.45
2018-06-22T06:35:48.525Z,57.74
2018-06-22T06:36:48.572Z,57.52
2018-06-22T06:37:48.556Z,57.81
2018-06-22T06:38:48.646Z,58.19
2018-06-22T06:39:48.592Z,57.74
2018-06-22T06:40:48.552Z,57.74
2018-06-22T06:41:48.652Z,57.74
2018-06-22T06:42:48.545Z,57.62
2018-06-22T06:43:48.606Z,57.81
2018-06-22T06:44:48.617Z,57.71
2018-06-22T06:45:49.144Z,57.32
2018-06-22T06:46:48.589Z,57.64
2018-06-22T06:47:48.579Z,57.42
2018-06-22T06:48:48.573Z,57.71
2018-06-22T06:49:48.617Z,56.94
2018-06-22T06:50:49.314Z,56.39
2018-06-22T06:51:48.602Z,57.04
2018-06-22T06:52:48.634Z,57.42
2018-06-22T06:53:48.582Z,57.42
2018-06-22T06:54:48.602Z,57.42
2018-06-22T06:55:48.577Z,57.42
2018-06-22T06:56:48.578Z,57.42
2018-06-22T06:57:49.256Z,57.9
2018-06-22T06:58:48.767Z,57.23
2018-06-22T06:59:48.655Z,57.42
2018-06-22T07:00:48.654Z,57.52
2018-06-22T07:01:48.599Z,57.52
2018-06-22T07:02:48.593Z,56.68
2018-06-22T07:03:48.605Z,56.84
2018-06-22T07:04:48.633Z,56.65
2018-06-22T07:05:48.583Z,56.46
2018-06-22T07:06:48.628Z,56.84
2018-06-22T07:07:48.624Z,57.42
2018-06-22T07:08:48.662Z,57.52
2018-06-22T07:09:48.591Z,56.46
2018-06-22T07:10:48.669Z,56.65
2018-06-22T07:11:48.630Z,56.84
2018-06-22T07:12:48.631Z,56.94
2018-06-22T07:13:48.639Z,56.94
2018-06-22T07:14:48.626Z,57.32
2018-06-22T07:15:48.663Z,57.23
2018-06-22T07:16:48.657Z,56.46
2018-06-22T07:17:48.652Z,56.84
2018-06-22T07:18:48.654Z,57.42
2018-06-22T07:19:49.167Z,57.32
2018-06-22T07:20:48.666Z,57.42
2018-06-22T07:21:48.600Z,57.42
2018-06-22T07:22:48.646Z,56.74
2018-06-22T07:27:16.791Z,57.32
2018-06-22T07:28:16.561Z,57.32
2018-06-22T07:29:16.536Z,56.26
2018-06-22T07:30:16.540Z,56.36
2018-06-22T07:31:16.566Z,56.43
2018-06-22T07:32:16.531Z,57.1
2018-06-22T07:33:16.544Z,57.52
2018-06-22T07:34:16.544Z,57.42
2018-06-22T07:35:16.532Z,57.71
2018-06-22T07:36:16.543Z,57.81
2018-06-22T07:37:17.153Z,57.32
2018-06-22T07:38:16.532Z,57.71
2018-06-22T07:39:16.531Z,56.94
2018-06-22T07:40:16.528Z,56.94
2018-06-22T07:41:16.553Z,56.46
2018-06-22T07:42:16.553Z,56.65
2018-06-22T07:43:16.575Z,57.23
2018-06-22T07:44:16.582Z,57.14
2018-06-22T07:45:16.565Z,56.84
2018-06-22T07:46:16.579Z,56.84
2018-06-22T07:47:16.550Z,57.52
2018-06-22T07:48:16.565Z,56.84
2018-06-22T07:49:16.563Z,56.74
2018-06-22T07:50:16.597Z,56.65
2018-06-22T07:51:16.599Z,56.46
2018-06-22T07:52:16.561Z,56.36
2018-06-22T07:53:16.541Z,56.65
2018-06-22T07:54:16.595Z,56.46
2018-06-22T07:55:16.655Z,56.94
2018-06-22T07:56:16.583Z,56.84
2018-06-22T07:57:16.626Z,56.84
2018-06-22T07:58:16.579Z,56.65
2018-06-22T07:59:16.585Z,56.94
2018-06-22T08:00:16.623Z,57.42
2018-06-22T08:01:16.599Z,57.04
2018-06-22T08:02:16.585Z,57.32
2018-06-22T08:03:16.610Z,57.14
2018-06-22T08:04:16.617Z,56.56
2018-06-22T08:05:16.576Z,56.74
2018-06-22T08:06:16.661Z,56.94
2018-06-22T08:07:16.615Z,56.26
2018-06-22T08:08:16.636Z,56.65
2018-06-22T08:09:16.576Z,56.46
2018-06-22T08:10:16.615Z,56.56
2018-06-22T08:11:16.581Z,56.46
2018-06-22T08:12:16.613Z,57.04
2018-06-22T08:13:16.629Z,56.46
2018-06-22T08:14:16.601Z,56.94
2018-06-22T08:15:16.603Z,56.91
2018-06-22T08:16:16.626Z,56.46
2018-06-22T08:17:16.622Z,56.94
2018-06-22T08:18:16.600Z,56.74
2018-06-22T08:19:16.591Z,56.74
2018-06-22T08:20:16.677Z,56.62
2018-06-22T08:21:16.649Z,56.16
2018-06-22T08:22:16.626Z,56.72
2018-06-22T08:23:16.633Z,56.52
2018-06-22T08:24:16.679Z,56.72
2018-06-22T08:25:16.675Z,56.72
2018-06-22T08:26:16.642Z,56.65
2018-06-22T08:27:16.661Z,56.33
2018-06-22T08:28:16.691Z,56.24
2018-06-22T08:29:16.701Z,56.74
2018-06-22T08:30:16.669Z,56.74
2018-06-22T08:31:16.684Z,56.84
2018-06-22T08:32:16.653Z,56.65
2018-06-22T08:33:16.686Z,56.72
2018-06-22T08:34:16.682Z,56.65
2018-06-22T08:35:16.699Z,56.65
2018-06-22T08:36:16.665Z,56.24
2018-06-22T08:37:16.729Z,56.24
2018-06-22T08:38:16.716Z,56.74
2018-06-22T08:39:16.660Z,56.43
2018-06-22T08:40:16.692Z,56.62
2018-06-22T08:41:16.714Z,55.94
2018-06-22T08:46:34.745Z,56.04
2018-06-22T08:46:46.256Z,56.72
2018-06-22T08:47:46.271Z,56.36
2018-06-22T08:48:46.246Z,56.72
2018-06-22T08:49:46.254Z,56.65
2018-06-22T08:50:46.330Z,56.62
2018-06-22T08:51:46.310Z,56.62
2018-06-22T08:52:46.286Z,56.24
2018-06-22T08:53:46.374Z,56.33
2018-06-22T08:54:46.297Z,56.33
2018-06-22T08:55:46.334Z,56.43
2018-06-22T08:56:46.269Z,56.24
2018-06-22T08:57:46.319Z,56.43
2018-06-22T08:58:46.264Z,55.85
2018-06-22T08:59:46.282Z,55.94
2018-06-22T09:00:46.266Z,55.88
2018-06-22T09:01:46.245Z,56.62
2018-06-22T09:02:46.307Z,56.72
2018-06-22T09:03:46.307Z,56.52
2018-06-22T09:04:46.313Z,56.04
2018-06-22T09:05:46.296Z,56.46
2018-06-22T09:06:46.307Z,56.46
2018-06-22T09:07:46.320Z,56.43
2018-06-22T09:08:46.292Z,55.94
2018-06-22T09:09:46.292Z,56.43
2018-06-22T09:10:46.307Z,56.43
2018-06-22T09:11:46.345Z,56.52
2018-06-22T09:12:46.301Z,56.43
2018-06-22T09:13:46.294Z,56.43
2018-06-22T09:14:46.306Z,56.74
2018-06-22T09:15:46.338Z,56.33
2018-06-22T09:16:46.267Z,55.94
2018-06-22T09:17:46.327Z,55.85
2018-06-22T09:18:46.305Z,56.62
2018-06-22T09:19:46.453Z,55.85
2018-06-22T09:20:46.301Z,56.52
2018-06-22T09:21:46.296Z,56.52
2018-06-22T09:22:46.301Z,56.52
2018-06-22T09:23:46.318Z,56.04
2018-06-22T09:24:46.341Z,55.94
2018-06-22T09:25:46.323Z,56.24
2018-06-22T09:26:46.315Z,56.72
2018-06-22T09:27:46.313Z,56.81
2018-06-22T09:28:46.352Z,56.62
2018-06-22T09:29:46.305Z,56.43
2018-06-22T09:30:46.308Z,57.01
2018-06-22T09:31:46.289Z,57.39
2018-06-22T09:32:46.360Z,57.68
2018-06-22T09:33:46.302Z,57.39
2018-06-22T09:34:46.379Z,57.97
2018-06-22T09:35:46.368Z,58.17
2018-06-22T09:36:46.435Z,58.55
2018-06-22T09:37:46.329Z,58.65
2018-06-22T09:38:46.355Z,58.55
2018-06-22T09:39:46.340Z,58.94
2018-06-22T09:40:46.348Z,58.94
2018-06-22T09:41:46.326Z,59.23
2018-06-22T09:42:46.464Z,59.03
2018-06-22T09:43:46.363Z,59.42
2018-06-22T09:44:46.343Z,59.71
2018-06-22T09:45:46.359Z,59.61
2018-06-22T09:46:46.409Z,59.71
2018-06-22T09:47:46.392Z,59.52
2018-06-22T09:48:46.349Z,60
2018-06-22T09:49:46.381Z,59.9
2018-06-22T09:50:46.365Z,59.71
2018-06-22T09:51:46.418Z,60.19
2018-06-22T09:52:46.423Z,60.68
2018-06-22T09:53:46.361Z,60.19
2018-06-22T09:54:46.376Z,60.48
2018-06-22T09:55:46.408Z,60.38
2018-06-22T09:56:46.406Z,60.86
2018-06-22T09:57:46.467Z,60.68
2018-06-22T09:58:46.360Z,60.96
2018-06-22T09:59:46.366Z,60.86
2018-06-22T10:00:46.409Z,60.96
2018-06-22T10:01:46.392Z,60.86
2018-06-22T10:02:46.374Z,60.86
2018-06-22T10:03:46.394Z,60.96
2018-06-22T10:04:46.514Z,60.86
2018-06-22T10:05:46.425Z,61.44
2018-06-22T10:06:46.391Z,60.77
2018-06-22T10:07:46.579Z,61.06
2018-06-22T10:08:46.422Z,61.06
2018-06-22T10:09:46.392Z,61.16
2018-06-22T10:10:46.412Z,60.96
2018-06-22T10:11:46.461Z,61.16
2018-06-22T10:12:46.437Z,61.16
2018-06-22T10:13:46.445Z,61.06
2018-06-22T10:14:47.161Z,61.25
2018-06-22T10:15:46.426Z,61.06
2018-06-22T10:16:47.090Z,61.16
2018-06-22T10:17:46.411Z,60.68
2018-06-22T10:18:46.391Z,60.86
2018-06-22T10:19:46.465Z,60.58
2018-06-22T10:20:46.424Z,60.68
2018-06-22T10:21:46.431Z,60.77
2018-06-22T10:22:46.784Z,60.86
2018-06-22T10:23:46.418Z,60.19
2018-06-22T10:24:46.412Z,60.1
2018-06-22T10:25:46.408Z,59.9
2018-06-22T10:26:46.439Z,59.9
2018-06-22T10:27:46.426Z,59.8
2018-06-22T10:28:46.408Z,60.1
2018-06-22T10:29:46.415Z,60.1
2018-06-22T10:30:46.447Z,60.1
2018-06-22T10:31:46.453Z,60.1
2018-06-22T10:32:46.423Z,60.1
2018-06-22T10:33:46.447Z,60
2018-06-22T10:34:46.441Z,60.1
2018-06-22T10:35:46.479Z,60.1
2018-06-22T10:36:46.474Z,60
2018-06-22T10:37:46.459Z,59.71
2018-06-22T10:38:46.469Z,59.9
2018-06-22T10:39:46.457Z,59.9
2018-06-22T10:40:46.475Z,60
2018-06-22T10:41:46.485Z,60
2018-06-22T10:42:46.443Z,60.1
2018-06-22T10:43:46.416Z,60
2018-06-22T10:44:46.423Z,59.9
2018-06-22T10:45:46.513Z,60
2018-06-22T10:46:46.528Z,59.42
2018-06-22T10:47:46.442Z,59.13
2018-06-22T10:48:46.443Z,59.23
2018-06-22T10:49:46.457Z,59.13
2018-06-22T10:50:46.468Z,59.23
2018-06-22T10:51:46.453Z,59.42
2018-06-22T10:52:46.512Z,59.03
2018-06-22T10:53:46.496Z,59.32
2018-06-22T10:54:46.448Z,59.13
2018-06-22T10:55:46.473Z,58.75
2018-06-22T10:56:46.508Z,58.65
2018-06-22T10:57:46.487Z,59.13
2018-06-22T10:58:46.493Z,58.75
2018-06-22T10:59:46.655Z,58.75
2018-06-22T11:00:46.484Z,58.52
2018-06-22T11:01:46.477Z,59.13
2018-06-22T11:02:46.470Z,58.45
2018-06-22T11:03:46.500Z,58.65
2018-06-22T11:04:46.505Z,58.65
2018-06-22T11:05:46.563Z,58.14
2018-06-22T11:06:46.483Z,58.07
2018-06-22T11:07:46.536Z,57.97
2018-06-22T11:08:46.519Z,58.26
2018-06-22T11:09:46.493Z,58.26
2018-06-22T11:10:46.468Z,58.33
2018-06-22T11:11:46.476Z,58.36
2018-06-22T11:12:46.508Z,58.23
2018-06-22T11:13:46.521Z,58.23
2018-06-22T11:14:46.555Z,58.07
2018-06-22T11:15:46.479Z,58.36
2018-06-22T11:16:46.593Z,57.97
2018-06-22T11:17:46.541Z,58.65
2018-06-22T11:18:48.292Z,58.26
2018-06-22T11:19:46.580Z,58.04
2018-06-22T11:20:46.516Z,58.07
2018-06-22T11:21:46.558Z,58.07
2018-06-22T11:22:46.502Z,58.17
2018-06-22T11:23:46.555Z,58.17
2018-06-22T11:24:46.594Z,58.07
2018-06-22T11:25:46.486Z,57.87
2018-06-22T11:26:46.546Z,58.17
2018-06-22T11:27:46.528Z,58.36
2018-06-22T11:28:46.511Z,58.55
2018-06-22T11:29:46.519Z,58.07
2018-06-22T11:30:46.617Z,58.07
2018-06-22T11:31:46.554Z,58.07
2018-06-22T11:32:46.542Z,57.97
2018-06-22T11:33:46.576Z,58.17
2018-06-22T11:34:46.558Z,58.26
2018-06-22T11:35:46.605Z,58.07
2018-06-22T11:36:46.519Z,58.23
2018-06-22T11:37:46.539Z,58.26
2018-06-22T11:38:46.533Z,58.04
2018-06-22T11:39:46.592Z,58.17
2018-06-22T11:40:46.542Z,58.52
2018-06-22T11:41:46.649Z,58.55
2018-06-22T11:42:46.591Z,58.55
2018-06-22T11:43:46.586Z,58.26
2018-06-22T11:44:46.539Z,58.62
2018-06-22T11:45:46.554Z,59.1
2018-06-22T11:46:46.592Z,59.23
2018-06-22T11:47:46.586Z,59.13
2018-06-22T11:48:46.594Z,59.32
2018-06-22T11:49:46.545Z,59.39
2018-06-22T11:50:46.614Z,59.8
2018-06-22T11:51:46.537Z,59.52
2018-06-22T11:52:46.612Z,59.23
2018-06-22T11:53:46.543Z,59.71
2018-06-22T11:54:46.603Z,59.42
2018-06-22T11:55:46.596Z,58.94
2018-06-22T11:56:46.618Z,59.23
2018-06-22T11:57:46.570Z,59.03
2018-06-22T11:58:46.577Z,59.23
2018-06-22T11:59:46.580Z,59.03
2018-06-22T12:00:47.359Z,58.94
2018-06-22T12:01:46.773Z,58.84
2018-06-22T12:02:46.612Z,58.94
2018-06-22T12:03:46.643Z,59.03
2018-06-22T12:04:46.731Z,58.75
2018-06-22T12:05:46.638Z,58.45
2018-06-22T12:06:46.613Z,58.55
2018-06-22T12:07:46.622Z,58.94
2018-06-22T12:08:46.574Z,59.61
2018-06-22T12:09:46.649Z,59.23
2018-06-22T12:10:46.604Z,59.13
2018-06-22T12:11:46.763Z,59.13
2018-06-22T12:12:46.669Z,58.94
2018-06-22T12:13:46.631Z,58.84
2018-06-22T12:14:46.630Z,58.65
2018-06-22T12:15:46.624Z,58.45
2018-06-22T12:16:46.620Z,58.75
2018-06-22T12:17:46.627Z,58.65
2018-06-22T12:19:21.584Z,58.75
2018-06-22T12:19:46.586Z,58.07
2018-06-22T12:20:46.616Z,58.26
2018-06-22T12:21:46.730Z,58.45
2018-06-22T12:22:46.607Z,58.36
2018-06-22T12:23:46.636Z,58.17
2018-06-22T12:24:46.747Z,58.36
2018-06-22T12:25:46.623Z,58.55
2018-06-22T12:26:47.632Z,59.13
2018-06-22T12:27:46.670Z,59.42
2018-06-22T12:28:46.900Z,59.52
2018-06-22T12:29:47.276Z,60.1
2018-06-22T12:30:46.878Z,60
2018-06-22T12:31:46.643Z,59.71
2018-06-22T12:32:46.626Z,60
2018-06-22T12:33:46.628Z,60
2018-06-22T12:34:46.677Z,60.1
2018-06-22T12:35:46.643Z,60.68
2018-06-22T12:36:47.352Z,60.86
2018-06-22T12:37:46.709Z,60.96
2018-06-22T12:38:46.733Z,60.58
2018-06-22T12:39:46.725Z,60.96
2018-06-22T12:40:46.669Z,60.58
2018-06-22T12:41:46.662Z,60.96
2018-06-22T12:42:46.733Z,60.96
2018-06-22T12:43:46.677Z,61.06
2018-06-22T12:44:46.679Z,60.96
2018-06-22T12:45:46.941Z,60.77
2018-06-22T12:46:46.696Z,60.96
2018-06-22T12:47:46.685Z,60.77
2018-06-22T12:48:46.753Z,60.86
2018-06-22T12:49:46.832Z,60.68
2018-06-22T12:50:46.747Z,60.86
2018-06-22T12:51:46.678Z,60.96
2018-06-22T12:52:46.708Z,60.48
2018-06-22T12:53:46.686Z,60.1
2018-06-22T12:54:46.694Z,60
2018-06-22T12:55:46.763Z,59.9
2018-06-22T12:56:46.736Z,59.61
2018-06-22T12:57:46.858Z,59.32
2018-06-22T12:58:46.986Z,59.13
2018-06-22T12:59:46.812Z,58.94
2018-06-22T13:00:46.718Z,59.13
2018-06-22T13:01:46.718Z,59.13
2018-06-22T13:02:46.805Z,59.32
2018-06-22T13:03:46.778Z,59.8
2018-06-22T13:04:46.794Z,59.71
2018-06-22T13:05:46.734Z,59.42
2018-06-22T13:06:46.787Z,59.71
2018-06-22T13:07:47.041Z,59.32